createdAt,value
2019-02-11T00:00:02.614Z,0.60
2019-02-11T00:02:48.929Z,0.50
2019-02-11T00:05:33.486Z,0.50
2019-02-11T00:08:17.961Z,0.70
2019-02-11T00:11:02.693Z,0.50
2019-02-11T00:13:47.349Z,0.60
2019-02-11T00:16:40.373Z,0.60
2019-02-11T00:19:25.534Z,0.90
2019-02-11T00:22:10.612Z,0.70
2019-02-11T00:25:04.540Z,0.90
2019-02-11T00:27:48.998Z,1.23
2019-02-11T00:30:35.284Z,1.00
2019-02-11T00:33:19.930Z,1.00
2019-02-11T00:36:05.041Z,0.83
2019-02-11T00:38:50.141Z,1.07
2019-02-11T00:41:34.842Z,1.00
2019-02-11T00:44:19.685Z,0.90
2019-02-11T00:47:04.557Z,0.80
2019-02-11T00:49:49.358Z,0.80
2019-02-11T00:52:34.942Z,1.07
2019-02-11T00:55:19.515Z,0.80
2019-02-11T00:58:13.043Z,0.70
2019-02-11T01:00:57.519Z,0.80
2019-02-11T01:03:41.990Z,0.80
2019-02-11T01:06:26.722Z,0.90
2019-02-11T01:09:11.975Z,1.00
2019-02-11T01:11:56.805Z,0.90
2019-02-11T01:14:41.730Z,0.97
2019-02-11T01:17:26.635Z,0.97
2019-02-11T01:20:11.401Z,1.00
2019-02-11T01:22:55.538Z,0.90
2019-02-11T01:25:40.061Z,1.17
2019-02-11T01:28:33.385Z,1.03
2019-02-11T01:31:18.179Z,0.97
2019-02-11T01:34:02.980Z,1.00
2019-02-11T01:36:47.741Z,0.80
2019-02-11T01:39:32.239Z,1.40
2019-02-11T01:42:17.145Z,0.90
2019-02-11T01:45:01.784Z,1.30
2019-02-11T01:47:46.794Z,0.80
2019-02-11T01:50:31.751Z,1.07
2019-02-11T01:53:15.990Z,1.00
2019-02-11T01:56:00.678Z,1.10
2019-02-11T01:58:45.979Z,0.90
2019-02-11T02:01:30.994Z,0.90
2019-02-11T02:04:15.814Z,1.10
2019-02-11T02:07:00.779Z,1.10
2019-02-11T02:09:45.737Z,1.10
2019-02-11T02:12:39.455Z,1.20
2019-02-11T02:15:24.539Z,1.10
2019-02-11T02:18:09.863Z,0.90
2019-02-11T02:21:03.135Z,1.00
2019-02-11T02:23:48.477Z,1.10
2019-02-11T02:26:42.490Z,0.90
2019-02-11T02:29:36.559Z,1.07
2019-02-11T02:32:30.220Z,0.90
2019-02-11T02:35:15.123Z,0.97
2019-02-11T02:38:00.622Z,1.07
2019-02-11T02:40:54.502Z,1.10
2019-02-11T02:43:55.095Z,1.10
2019-02-11T02:46:34.683Z,1.07
2019-02-11T02:49:19.955Z,1.10
2019-02-11T02:52:13.626Z,1.10
2019-02-11T02:54:58.513Z,1.30
2019-02-11T02:57:43.516Z,1.50
2019-02-11T03:00:37.270Z,1.00
2019-02-11T03:03:23.392Z,1.10
2019-02-11T03:06:08.380Z,1.00
2019-02-11T03:08:53.189Z,1.50
2019-02-11T03:11:38.547Z,1.00
2019-02-11T03:14:32.011Z,1.10
2019-02-11T03:17:17.067Z,1.40
2019-02-11T03:20:01.891Z,1.20
2019-02-11T03:22:56.083Z,1.10
2019-02-11T03:25:49.983Z,1.07
2019-02-11T03:28:34.360Z,0.90
2019-02-11T03:31:19.133Z,0.70
2019-02-11T03:34:03.991Z,0.80
2019-02-11T03:36:48.334Z,0.90
2019-02-11T03:39:33.473Z,0.80
2019-02-11T03:42:18.946Z,0.87
2019-02-11T03:45:12.802Z,1.07
2019-02-11T03:47:57.594Z,0.90
2019-02-11T03:50:42.598Z,1.00
2019-02-11T03:53:27.230Z,1.20
2019-02-11T03:56:12.313Z,1.07
2019-02-11T03:59:06.314Z,1.40
2019-02-11T04:01:50.763Z,1.30
2019-02-11T04:04:35.874Z,1.40
2019-02-11T04:07:21.244Z,1.80
2019-02-11T04:10:14.985Z,1.80
2019-02-11T04:13:08.871Z,1.90
2019-02-11T04:15:53.994Z,2.10
2019-02-11T04:18:47.582Z,1.80
2019-02-11T04:21:32.589Z,2.00
2019-02-11T04:24:17.646Z,2.17
2019-02-11T04:27:11.509Z,2.10
2019-02-11T04:29:56.295Z,2.07
2019-02-11T04:32:40.917Z,2.00
2019-02-11T04:35:25.535Z,1.93
2019-02-11T04:38:10.193Z,1.87
2019-02-11T04:40:54.802Z,1.70
2019-02-11T04:43:39.847Z,1.63
2019-02-11T04:46:24.914Z,1.80
2019-02-11T04:49:09.418Z,1.90
2019-02-11T04:51:54.603Z,1.43
2019-02-11T04:54:40.003Z,1.50
2019-02-11T04:57:33.167Z,1.70
2019-02-11T05:00:18.437Z,1.70
2019-02-11T05:03:03.116Z,1.90
2019-02-11T05:05:48.575Z,1.53
2019-02-11T05:08:41.886Z,1.60
2019-02-11T05:11:26.748Z,1.90
2019-02-11T05:14:11.859Z,1.70
2019-02-11T05:17:05.899Z,1.40
2019-02-11T05:19:50.799Z,1.57
2019-02-11T05:22:45.155Z,2.27
2019-02-11T05:25:38.476Z,2.10
2019-02-11T05:28:22.951Z,1.33
2019-02-11T05:31:07.666Z,1.53
2019-02-11T05:33:52.548Z,1.50
2019-02-11T05:36:36.858Z,1.70
2019-02-11T05:39:30.654Z,1.40
2019-02-11T05:42:15.423Z,1.67
2019-02-11T05:45:08.554Z,1.73
2019-02-11T05:47:54.032Z,1.60
2019-02-11T05:50:38.558Z,1.70
2019-02-11T05:53:22.950Z,1.40
2019-02-11T05:56:35.382Z,1.80
2019-02-11T05:59:20.453Z,1.50
2019-02-11T06:02:05.976Z,1.57
2019-02-11T06:04:50.535Z,1.93
2019-02-11T06:07:43.882Z,1.33
2019-02-11T06:10:28.356Z,1.57
2019-02-11T06:13:12.936Z,1.60
2019-02-11T06:15:57.822Z,1.30
2019-02-11T06:18:43.167Z,1.70
2019-02-11T06:21:28.472Z,1.50
2019-02-11T06:24:21.923Z,1.20
2019-02-11T06:27:06.562Z,1.40
2019-02-11T06:29:51.559Z,1.60
2019-02-11T06:32:36.582Z,1.67
2019-02-11T06:35:21.481Z,1.40
2019-02-11T06:38:06.774Z,1.30
2019-02-11T06:41:00.700Z,1.50
2019-02-11T06:43:54.418Z,1.50
2019-02-11T06:46:39.510Z,1.53
2019-02-11T06:49:33.875Z,2.07
2019-02-11T06:52:27.745Z,1.47
2019-02-11T06:55:21.890Z,1.30
2019-02-11T06:58:15.917Z,1.30
2019-02-11T07:01:09.827Z,1.30
2019-02-11T07:03:55.161Z,1.30
2019-02-11T07:06:48.692Z,1.50
2019-02-11T07:09:33.744Z,1.90
2019-02-11T07:12:27.616Z,1.60
2019-02-11T07:15:21.246Z,1.70
2019-02-11T07:18:08.605Z,1.80
2019-02-11T07:21:02.260Z,1.70
2019-02-11T07:23:47.388Z,1.67
2019-02-11T07:26:41.300Z,1.70
2019-02-11T07:29:26.256Z,1.80
2019-02-11T07:32:20.856Z,1.60
2019-02-11T07:35:05.974Z,1.80
2019-02-11T07:37:50.781Z,1.47
2019-02-11T07:40:35.625Z,1.57
2019-02-11T07:43:30.313Z,1.40
2019-02-11T07:46:44.472Z,1.77
2019-02-11T07:49:51.220Z,1.50
2019-02-11T07:52:44.188Z,1.70
2019-02-11T07:55:47.768Z,1.40
2019-02-11T07:58:32.937Z,1.60
2019-02-11T08:01:18.287Z,1.80
2019-02-11T08:04:12.254Z,1.60
2019-02-11T08:07:06.017Z,1.40
2019-02-11T08:09:53.085Z,1.87
2019-02-11T08:12:46.783Z,1.33
2019-02-11T08:15:40.805Z,1.70
2019-02-11T08:18:25.683Z,1.47
2019-02-11T08:21:19.725Z,1.70
2019-02-11T08:24:13.732Z,1.80
2019-02-11T08:26:58.705Z,1.50
2019-02-11T08:29:52.389Z,1.60
2019-02-11T08:32:37.736Z,1.30
2019-02-11T08:35:31.514Z,1.80
2019-02-11T08:38:16.165Z,1.50
2019-02-11T08:41:01.177Z,1.53
2019-02-11T08:43:46.378Z,1.57
2019-02-11T08:46:40.250Z,1.37
2019-02-11T08:49:34.789Z,1.83
2019-02-11T08:52:28.975Z,1.60
2019-02-11T08:55:14.393Z,1.37
2019-02-11T08:57:58.820Z,1.40
2019-02-11T09:00:43.551Z,1.20
2019-02-11T09:03:28.889Z,1.10
2019-02-11T09:06:14.280Z,1.20
2019-02-11T09:09:08.164Z,1.23
2019-02-11T09:12:04.081Z,1.20
2019-02-11T09:14:49.049Z,1.40
2019-02-11T09:18:03.814Z,1.03
2019-02-11T09:20:57.619Z,1.37
2019-02-11T09:23:59.745Z,1.10
2019-02-11T09:27:01.445Z,1.13
2019-02-11T09:29:46.385Z,1.17
2019-02-11T09:32:31.492Z,1.40
2019-02-11T09:35:25.421Z,1.00
2019-02-11T09:38:20.528Z,1.03
2019-02-11T09:41:05.218Z,1.23
2019-02-11T09:43:50.278Z,1.00
2019-02-11T09:46:35.376Z,1.40
2019-02-11T09:49:29.713Z,1.17
2019-02-11T09:52:23.345Z,0.93
2019-02-11T09:55:08.277Z,1.53
2019-02-11T09:57:53.024Z,0.93
2019-02-11T10:00:37.934Z,1.03
2019-02-11T10:03:23.440Z,1.20
2019-02-11T10:06:08.464Z,1.20
2019-02-11T10:08:53.417Z,1.30
2019-02-11T10:11:38.310Z,1.30
2019-02-11T10:14:23.719Z,1.27
2019-02-11T10:17:17.520Z,1.40
2019-02-11T10:20:02.476Z,1.13
2019-02-11T10:22:48.700Z,1.20
2019-02-11T10:25:33.681Z,1.10
2019-02-11T10:28:19.499Z,1.77
2019-02-11T10:31:04.425Z,2.20
2019-02-11T10:33:49.153Z,1.77
2019-02-11T10:36:34.287Z,1.93
2019-02-11T10:39:20.457Z,1.20
2019-02-11T10:42:05.158Z,1.30
2019-02-11T10:44:50.087Z,1.30
2019-02-11T10:47:35.344Z,1.17
2019-02-11T10:50:19.867Z,1.30
2019-02-11T10:53:05.141Z,1.40
2019-02-11T10:55:58.977Z,1.30
2019-02-11T10:58:44.356Z,1.40
2019-02-11T11:01:37.808Z,1.70
2019-02-11T11:04:22.870Z,1.30
2019-02-11T11:07:08.034Z,1.30
2019-02-11T11:10:02.393Z,2.00
2019-02-11T11:12:47.682Z,2.07
2019-02-11T11:15:32.584Z,1.67
2019-02-11T11:18:17.421Z,1.27
2019-02-11T11:21:02.348Z,2.00
2019-02-11T11:23:47.292Z,1.70
2019-02-11T11:26:32.298Z,1.20
2019-02-11T11:29:17.587Z,1.23
2019-02-11T11:32:11.065Z,1.43
2019-02-11T11:34:55.969Z,1.60
2019-02-11T11:37:41.332Z,1.70
2019-02-11T11:40:34.813Z,1.70
2019-02-11T11:43:19.425Z,1.43
2019-02-11T11:46:04.569Z,1.40
2019-02-11T11:48:49.885Z,1.57
2019-02-11T11:51:43.646Z,1.67
2019-02-11T11:54:37.648Z,1.53
2019-02-11T11:57:38.337Z,1.60
2019-02-11T12:00:23.330Z,1.33
2019-02-11T12:03:08.431Z,1.90
2019-02-11T12:05:53.332Z,1.80
2019-02-11T12:08:38.618Z,2.17
2019-02-11T12:11:32.826Z,1.53
2019-02-11T12:14:27.206Z,1.60
2019-02-11T12:17:21.070Z,2.00
2019-02-11T12:20:15.073Z,1.90
2019-02-11T12:23:09.571Z,1.77
2019-02-11T12:26:03.073Z,1.97
2019-02-11T12:28:48.128Z,1.60
2019-02-11T12:31:42.275Z,2.00
2019-02-11T12:34:36.451Z,1.60
2019-02-11T12:37:30.846Z,1.10
2019-02-11T12:40:24.290Z,1.70
2019-02-11T12:43:09.838Z,1.37
2019-02-11T12:45:54.681Z,1.10
2019-02-11T12:48:39.323Z,1.47
2019-02-11T12:51:32.605Z,1.80
2019-02-11T12:54:17.537Z,1.30
2019-02-11T12:57:01.949Z,1.50
2019-02-11T12:59:46.517Z,1.77
2019-02-11T13:02:31.469Z,1.20
2019-02-11T13:05:21.116Z,1.10
2019-02-11T13:08:03.545Z,1.37
2019-02-11T13:10:57.609Z,1.40
2019-02-11T13:13:51.917Z,1.40
2019-02-11T13:16:45.637Z,1.40
2019-02-11T13:19:30.499Z,1.57
2019-02-11T13:22:15.572Z,2.20
2019-02-11T13:25:09.577Z,1.60
2019-02-11T13:28:03.763Z,1.50
2019-02-11T13:30:57.771Z,1.13
2019-02-11T13:33:42.623Z,1.33
2019-02-11T13:36:37.122Z,1.93
2019-02-11T13:39:31.432Z,1.40
2019-02-11T13:42:16.499Z,1.43
2019-02-11T13:45:04.930Z,1.40
2019-02-11T13:47:55.154Z,1.70
2019-02-11T13:50:36.087Z,1.97
2019-02-11T13:53:20.980Z,1.87
2019-02-11T13:56:06.079Z,1.60
2019-02-11T13:59:00.390Z,1.50
2019-02-11T14:01:54.580Z,1.37
2019-02-11T14:04:48.035Z,1.33
2019-02-11T14:07:32.861Z,1.67
2019-02-11T14:10:17.899Z,1.60
2019-02-11T14:13:03.207Z,1.50
2019-02-11T14:15:56.995Z,1.50
2019-02-11T14:18:51.819Z,1.60
2019-02-11T14:21:47.093Z,1.50
2019-02-11T14:24:40.746Z,1.40
2019-02-11T14:27:25.432Z,1.73
2019-02-11T14:30:10.280Z,1.40
2019-02-11T14:32:55.788Z,1.40
2019-02-11T14:35:40.965Z,1.57
2019-02-11T14:38:26.259Z,1.37
2019-02-11T14:41:10.983Z,1.37
2019-02-11T14:43:55.817Z,1.70
2019-02-11T14:46:41.331Z,1.90
2019-02-11T14:49:35.222Z,1.80
2019-02-11T14:52:29.147Z,1.30
2019-02-11T14:55:23.112Z,1.50
2019-02-11T14:58:07.857Z,1.40
2019-02-11T15:00:53.052Z,1.47
2019-02-11T15:03:47.891Z,1.70
2019-02-11T15:06:32.969Z,1.33
2019-02-11T15:09:18.012Z,1.40
2019-02-11T15:12:02.897Z,1.40
2019-02-11T15:14:49.340Z,1.43
2019-02-11T15:17:34.753Z,1.30
2019-02-11T15:20:27.361Z,1.30
2019-02-11T15:23:20.985Z,1.20
2019-02-11T15:26:14.728Z,1.33
2019-02-11T15:28:59.613Z,2.10
2019-02-11T15:31:44.500Z,1.50
2019-02-11T15:34:29.797Z,1.30
2019-02-11T15:37:23.669Z,1.40
2019-02-11T15:40:17.609Z,1.63
2019-02-11T15:43:02.797Z,1.70
2019-02-11T15:45:56.644Z,1.87
2019-02-11T15:48:43.107Z,1.10
2019-02-11T15:51:27.969Z,1.23
2019-02-11T15:54:22.449Z,1.40
2019-02-11T15:57:16.534Z,1.50
2019-02-11T16:00:03.169Z,1.97
2019-02-11T16:02:48.996Z,1.30
2019-02-11T16:05:49.421Z,1.23
2019-02-11T16:08:38.673Z,1.33
2019-02-11T16:11:23.422Z,1.50
2019-02-11T16:14:08.564Z,1.30
2019-02-11T16:16:54.840Z,1.60
2019-02-11T16:19:48.693Z,1.50
2019-02-11T16:22:33.518Z,1.50
2019-02-11T16:25:18.453Z,1.57
2019-02-11T16:28:03.493Z,1.87
2019-02-11T16:30:58.638Z,1.60
2019-02-11T16:33:52.437Z,1.47
2019-02-11T16:36:36.999Z,1.73
2019-02-11T16:39:21.724Z,1.40
2019-02-11T16:42:06.662Z,1.33
2019-02-11T16:44:53.274Z,1.90
2019-02-11T16:47:37.996Z,1.53
2019-02-11T16:50:23.621Z,1.63
2019-02-11T16:53:08.385Z,2.00
2019-02-11T16:55:52.877Z,1.37
2019-02-11T16:58:47.263Z,2.00
2019-02-11T17:01:41.245Z,2.97
2019-02-11T17:04:35.444Z,2.23
2019-02-11T17:07:29.083Z,2.20
2019-02-11T17:10:14.150Z,2.03
2019-02-11T17:13:07.945Z,2.10
2019-02-11T17:15:52.952Z,2.33
2019-02-11T17:18:47.217Z,2.07
2019-02-11T17:21:41.813Z,3.20
2019-02-11T17:24:26.738Z,2.00
2019-02-11T17:27:11.709Z,2.70
2019-02-11T17:29:57.497Z,1.97
2019-02-11T17:32:51.990Z,2.10
2019-02-11T17:35:37.233Z,1.97
2019-02-11T17:38:22.584Z,2.20
2019-02-11T17:41:16.546Z,1.63
2019-02-11T17:44:01.313Z,1.90
2019-02-11T17:46:47.585Z,1.87
2019-02-11T17:49:31.976Z,1.60
2019-02-11T17:52:17.333Z,1.70
2019-02-11T17:55:02.325Z,1.80
2019-02-11T17:57:56.406Z,1.80
2019-02-11T18:00:54.370Z,1.90
2019-02-11T18:03:39.369Z,2.10
2019-02-11T18:06:24.365Z,1.60
2019-02-11T18:09:10.757Z,2.40
2019-02-11T18:11:55.829Z,1.97
2019-02-11T18:14:40.509Z,2.40
2019-02-11T18:17:25.968Z,2.07
2019-02-11T18:20:19.935Z,2.60
2019-02-11T18:23:05.801Z,1.73
2019-02-11T18:25:50.962Z,2.10
2019-02-11T18:28:44.966Z,2.30
2019-02-11T18:31:33.186Z,2.50
2019-02-11T18:34:16.741Z,2.40
2019-02-11T18:37:13.123Z,2.30
2019-02-11T18:39:58.549Z,2.40
2019-02-11T18:42:53.060Z,2.30
2019-02-11T18:45:46.525Z,1.93
2019-02-11T18:48:31.258Z,2.00
2019-02-11T18:51:16.732Z,2.10
2019-02-11T18:54:10.337Z,1.63
2019-02-11T18:56:55.549Z,1.70
2019-02-11T18:59:49.369Z,1.90
2019-02-11T19:02:35.533Z,2.00
2019-02-11T19:05:19.057Z,1.90
2019-02-11T19:08:13.261Z,1.93
2019-02-11T19:11:09.646Z,2.10
2019-02-11T19:13:54.092Z,2.03
2019-02-11T19:16:39.244Z,2.40
2019-02-11T19:19:24.446Z,1.87
2019-02-11T19:22:10.490Z,2.13
2019-02-11T19:24:55.443Z,2.03
2019-02-11T19:27:40.656Z,1.90
2019-02-11T19:30:34.721Z,1.77
2019-02-11T19:33:31.757Z,1.57
2019-02-11T19:36:16.940Z,2.20
2019-02-11T19:39:11.053Z,2.17
2019-02-11T19:42:05.442Z,2.00
2019-02-11T19:44:59.065Z,2.07
2019-02-11T19:47:44.087Z,1.80
2019-02-11T19:50:28.987Z,2.03
2019-02-11T19:53:14.393Z,2.07
2019-02-11T19:55:59.101Z,1.87
2019-02-11T19:58:52.725Z,2.20
2019-02-11T20:01:37.614Z,2.17
2019-02-11T20:04:31.685Z,2.03
2019-02-11T20:07:25.697Z,1.97
2019-02-11T20:10:10.662Z,2.13
2019-02-11T20:13:05.797Z,2.43
2019-02-11T20:15:50.241Z,2.40
2019-02-11T20:18:35.349Z,2.70
2019-02-11T20:21:20.799Z,1.93
2019-02-11T20:24:14.869Z,2.10
2019-02-11T20:27:09.056Z,2.03
2019-02-11T20:30:02.616Z,1.83
2019-02-11T20:32:57.209Z,1.80
2019-02-11T20:35:51.366Z,1.70
2019-02-11T20:38:45.585Z,1.70
2019-02-11T20:41:39.390Z,1.83
2019-02-11T20:44:24.249Z,1.73
2019-02-11T20:47:09.200Z,1.70
2019-02-11T20:50:08.973Z,1.50
2019-02-11T20:52:57.512Z,1.80
2019-02-11T20:55:51.187Z,1.60
2019-02-11T20:58:35.889Z,1.57
2019-02-11T21:01:20.863Z,2.00
2019-02-11T21:04:05.905Z,2.00
2019-02-11T21:06:51.389Z,2.23
2019-02-11T21:09:36.357Z,2.83
2019-02-11T21:12:21.245Z,1.97
2019-02-11T21:15:06.541Z,2.37
2019-02-11T21:17:51.996Z,2.73
2019-02-11T21:20:45.211Z,2.43
2019-02-11T21:23:30.642Z,2.50
2019-02-11T21:26:24.597Z,2.80
2019-02-11T21:29:12.205Z,2.20
2019-02-11T21:31:56.880Z,2.23
2019-02-11T21:34:41.761Z,2.47
2019-02-11T21:37:27.233Z,2.37
2019-02-11T21:40:21.241Z,2.30
2019-02-11T21:43:15.213Z,2.65
2019-02-11T21:45:59.656Z,2.17
2019-02-11T21:48:44.300Z,1.97
2019-02-11T21:51:29.836Z,2.00
2019-02-11T21:54:23.960Z,1.80
2019-02-11T21:57:17.988Z,1.90
2019-02-11T22:00:02.913Z,3.93
2019-02-11T22:02:58.589Z,2.40
2019-02-11T22:05:52.905Z,2.60
2019-02-11T22:08:46.873Z,1.73
2019-02-11T22:11:40.757Z,2.20
2019-02-11T22:14:26.026Z,2.10
2019-02-11T22:17:20.277Z,2.20
2019-02-11T22:20:15.628Z,1.90
2019-02-11T22:23:03.410Z,1.80
2019-02-11T22:25:49.297Z,1.87
2019-02-11T22:28:34.732Z,1.70
2019-02-11T22:31:19.677Z,2.13
2019-02-11T22:34:05.443Z,1.70
2019-02-11T22:36:59.365Z,1.80
2019-02-11T22:39:45.449Z,2.00
2019-02-11T22:42:30.505Z,2.00
2019-02-11T22:45:16.528Z,1.87
2019-02-11T22:48:01.685Z,1.73
2019-02-11T22:50:46.828Z,1.67
2019-02-11T22:53:40.717Z,2.00
2019-02-11T22:56:25.592Z,2.00
2019-02-11T22:59:20.389Z,1.93
2019-02-11T23:02:05.101Z,2.13
2019-02-11T23:04:49.810Z,2.37
2019-02-11T23:07:35.113Z,2.00
2019-02-11T23:10:20.520Z,2.00
2019-02-11T23:13:14.545Z,2.30
2019-02-11T23:15:59.252Z,2.13
2019-02-11T23:18:44.025Z,2.73
2019-02-11T23:21:29.281Z,2.83
2019-02-11T23:24:23.148Z,3.27
2019-02-11T23:27:17.029Z,2.50
2019-02-11T23:30:01.590Z,2.13
2019-02-11T23:32:47.157Z,2.43
2019-02-11T23:35:40.889Z,2.83
2019-02-11T23:38:25.945Z,2.70
2019-02-11T23:41:19.988Z,2.77
2019-02-11T23:44:14.344Z,3.00
2019-02-11T23:47:08.075Z,2.80
2019-02-11T23:50:01.776Z,3.07
2019-02-11T23:52:47.180Z,3.50
2019-02-11T23:55:41.173Z,3.00
2019-02-11T23:58:34.844Z,3.10
